KALW

Walla Walla Regional Airport

Walla Walla, Washington, USA
METAR KALW 260319Z AUTO 22016G24KT 10SM BKN022 OVC110 04/00 A2979 RMK AO2 T00390000
Observed Flight Rules
Feb-26 @ 03:19 UTC (15 minutes ago) Marginal Visual Flight Rules
Wind Visibility Clouds
220° at 16 knots
 Gusting to 24 knots
10 miles
  • Broken at 2,200' AGL
  • Overcast at 11,000' AGL
Temperatures Readings
Current 4°C / 39°F
Dewpoint 0°C / 32°F
Humidity 75%
Altimeter 29.79" Hg
Pressure 1009 hPa
Elevation 363
METAR KALW 260319Z AUTO 22016G24KT 10SM BKN022 OVC110 04/00 A2979 RMK AO2 T00390000
Observed Flight Rules
Feb-26 @ 03:19 UTC
(15 minutes ago)
MVFR
Wind Visibility
220° at 16 knots
 Gusting to 24 knots
10 miles
Clouds
  • Broken at 2,200' AGL
  • Overcast at 11,000' AGL
Temperature Dewpoint
4°C / 39°F 0°C / 32°F
Humidity Altimeter Pressure
75% 29.79" Hg 1009 hPa